Time;durP1;ratioP1;P1;durP2;ratioP2;P2;SDS_P1;SDS_P2;PMS_P1;PMS_P2;Temp;Humidity;BMP_temperature;BMP_pressure;BME280_temperature;BME280_humidity;BME280_pressure;Samples;Min_cycle;Max_cycle;Signal;HPM_P1;HPM_P2
2023/07/26 00:00:53;;;;;;;0.77;0.47;;;22.10;1.00;;;;;;4809428;29;20043;-60
2023/07/26 00:03:19;;;;;;;1.27;0.40;;;22.10;1.00;;;;;;4814462;29;20042;-60
2023/07/26 00:05:47;;;;;;;0.95;0.45;;;22.10;1.00;;;;;;4810085;29;20500;-60
2023/07/26 00:08:14;;;;;;;1.08;0.47;;;22.10;1.00;;;;;;4812178;29;20054;-60
2023/07/26 00:13:48;;;;;;;3.28;0.57;;;22.00;1.00;;;;;;4811526;29;20095;-60
2023/07/26 00:16:15;;;;;;;0.47;0.30;;;22.00;1.00;;;;;;4814945;29;20082;-60
2023/07/26 00:18:41;;;;;;;1.42;0.57;;;22.00;1.00;;;;;;4806533;29;20047;-60
2023/07/26 00:21:08;;;;;;;0.90;0.45;;;22.00;1.00;;;;;;4812792;29;20095;-60
2023/07/26 00:23:35;;;;;;;2.25;0.60;;;22.00;1.00;;;;;;4805371;29;20384;-60
2023/07/26 00:26:02;;;;;;;1.30;0.40;;;22.00;1.00;;;;;;4811260;29;20035;-60
2023/07/26 00:28:29;;;;;;;1.25;0.50;;;22.00;1.00;;;;;;4812996;29;20051;-58
2023/07/26 00:30:56;;;;;;;2.55;0.77;;;22.00;1.00;;;;;;4804478;29;20057;-60
2023/07/26 00:33:23;;;;;;;1.00;0.57;;;22.00;1.00;;;;;;4811450;29;20408;-58
2023/07/26 00:35:49;;;;;;;1.10;0.40;;;22.00;1.00;;;;;;4811811;29;20055;-60
2023/07/26 00:38:16;;;;;;;1.35;0.63;;;22.00;1.00;;;;;;4788210;29;20200;-60
2023/07/26 00:40:43;;;;;;;1.10;0.40;;;22.00;1.00;;;;;;4795839;29;20069;-60
2023/07/26 00:43:35;;;;;;;1.23;0.50;;;22.00;1.00;;;;;;4788651;29;20101;-83
2023/07/26 00:46:04;;;;;;;1.38;0.60;;;22.00;1.00;;;;;;4810442;29;20042;-60
2023/07/26 00:48:32;;;;;;;3.25;0.45;;;22.00;1.00;;;;;;4812433;29;20502;-60
2023/07/26 00:51:00;;;;;;;1.60;0.77;;;22.00;1.00;;;;;;4804557;29;20054;-60
2023/07/26 00:53:28;;;;;;;2.17;0.70;;;22.00;1.00;;;;;;4816576;29;20048;-60
2023/07/26 00:55:55;;;;;;;1.35;0.45;;;22.00;1.00;;;;;;4795182;29;20138;-60
2023/07/26 00:58:23;;;;;;;2.55;0.85;;;22.00;1.00;;;;;;4806097;29;20050;-60
2023/07/26 01:00:51;;;;;;;2.45;0.50;;;22.00;1.00;;;;;;4819543;29;20130;-60
2023/07/26 01:03:19;;;;;;;1.27;0.50;;;22.00;1.00;;;;;;4819054;29;20039;-60
2023/07/26 01:06:06;;;;;;;2.88;1.00;;;22.00;1.00;;;;;;4813972;29;20047;-59
2023/07/26 01:08:53;;;;;;;0.88;0.45;;;22.00;1.00;;;;;;4807791;29;20145;-60
2023/07/26 01:11:28;;;;;;;1.27;0.40;;;22.00;1.00;;;;;;4824088;29;20055;-60
2023/07/26 01:14:04;;;;;;;1.00;0.47;;;22.00;1.00;;;;;;4819662;29;20078;-60
2023/07/26 01:16:31;;;;;;;1.52;0.73;;;21.90;1.00;;;;;;4798123;29;20063;-60
2023/07/26 01:18:58;;;;;;;2.20;0.60;;;21.90;1.00;;;;;;4814159;29;20067;-59
2023/07/26 01:21:25;;;;;;;2.08;0.80;;;21.90;1.00;;;;;;4807405;29;20504;-60
2023/07/26 01:23:51;;;;;;;2.88;0.60;;;21.90;1.00;;;;;;4807456;29;20045;-60
2023/07/26 01:26:18;;;;;;;1.58;0.85;;;21.90;1.00;;;;;;4807432;29;20061;-60
2023/07/26 01:28:45;;;;;;;1.00;0.43;;;21.90;1.00;;;;;;4807289;29;20050;-60
2023/07/26 01:31:15;;;;;;;1.30;0.50;;;21.90;1.00;;;;;;4791022;29;20058;-60
2023/07/26 01:33:44;;;;;;;0.95;0.45;;;21.90;1.00;;;;;;4807309;29;20045;-60
2023/07/26 01:36:12;;;;;;;1.55;0.73;;;21.90;1.00;;;;;;4791209;29;20055;-60
2023/07/26 01:38:39;;;;;;;1.23;0.50;;;21.90;1.00;;;;;;4806875;29;20071;-58
2023/07/26 01:41:06;;;;;;;1.35;0.52;;;21.90;1.00;;;;;;4790811;29;20047;-59
2023/07/26 01:43:34;;;;;;;2.03;0.85;;;21.90;1.00;;;;;;4807258;29;20050;-59
2023/07/26 01:46:01;;;;;;;0.63;0.35;;;21.90;1.00;;;;;;4802516;29;20050;-60
2023/07/26 01:48:28;;;;;;;3.47;0.63;;;21.90;1.00;;;;;;4823441;29;20501;-59
2023/07/26 01:50:55;;;;;;;1.75;0.60;;;21.90;1.00;;;;;;4825007;29;20095;-59
2023/07/26 01:53:21;;;;;;;2.05;0.52;;;21.90;1.00;;;;;;4823871;29;20054;-60
2023/07/26 01:55:48;;;;;;;1.77;0.50;;;21.90;1.00;;;;;;4823611;29;20500;-59
2023/07/26 01:58:15;;;;;;;0.60;0.43;;;21.90;1.00;;;;;;4808332;29;20119;-59
2023/07/26 02:00:42;;;;;;;0.80;0.30;;;21.90;1.00;;;;;;4808463;29;20107;-59
2023/07/26 02:03:09;;;;;;;1.15;0.50;;;21.90;1.00;;;;;;4808394;29;20477;-58
2023/07/26 02:05:45;;;;;;;1.25;0.40;;;21.90;1.00;;;;;;4824728;29;20050;-58
2023/07/26 02:08:13;;;;;;;0.93;0.47;;;21.90;1.00;;;;;;4823252;29;20091;-59
2023/07/26 02:10:40;;;;;;;1.73;0.47;;;21.90;1.00;;;;;;4808208;29;20070;-59
2023/07/26 02:13:07;;;;;;;1.00;0.68;;;21.90;1.00;;;;;;4808114;29;20056;-58
2023/07/26 02:15:34;;;;;;;1.23;0.35;;;21.90;1.00;;;;;;4825000;29;20116;-59
2023/07/26 02:18:02;;;;;;;0.68;0.30;;;21.80;1.00;;;;;;4807841;29;20052;-60
2023/07/26 02:20:30;;;;;;;1.10;0.50;;;21.80;1.00;;;;;;4808092;29;20057;-59
2023/07/26 02:22:57;;;;;;;0.55;0.28;;;21.80;1.00;;;;;;4824721;29;20045;-60
2023/07/26 02:25:24;;;;;;;1.77;0.77;;;21.80;1.00;;;;;;4823081;29;20146;-60
2023/07/26 02:27:51;;;;;;;1.63;0.52;;;21.80;1.00;;;;;;4822964;29;20046;-60
2023/07/26 02:30:18;;;;;;;2.03;0.45;;;21.80;1.00;;;;;;4823142;29;20058;-59
2023/07/26 02:32:45;;;;;;;1.40;0.60;;;21.80;1.00;;;;;;4822947;29;20577;-60
2023/07/26 02:35:13;;;;;;;1.40;0.80;;;21.80;1.00;;;;;;4807836;29;20047;-60
2023/07/26 02:37:40;;;;;;;1.73;0.45;;;21.80;1.00;;;;;;4824107;29;20050;-59
2023/07/26 02:40:07;;;;;;;1.00;0.40;;;21.80;1.00;;;;;;4822876;29;20074;-59
2023/07/26 02:42:34;;;;;;;1.02;0.52;;;21.80;1.00;;;;;;4807510;29;20054;-60
2023/07/26 02:45:01;;;;;;;0.82;0.40;;;21.80;1.00;;;;;;4822845;29;20065;-60
2023/07/26 02:47:32;;;;;;;0.95;0.47;;;21.80;1.00;;;;;;4806587;29;20078;-58
2023/07/26 02:50:04;;;;;;;1.52;0.73;;;21.80;1.00;;;;;;4824134;29;20057;-58
2023/07/26 02:52:33;;;;;;;;;;;21.80;1.00;;;;;;4808041;29;20157;-58
2023/07/26 02:55:00;;;;;;;2.60;0.60;;;21.80;1.00;;;;;;4823912;29;19925;-59
2023/07/26 02:57:27;;;;;;;1.67;0.40;;;21.80;1.00;;;;;;4823863;29;20420;-59
2023/07/26 02:59:54;;;;;;;1.02;0.45;;;21.70;1.00;;;;;;4824141;29;20065;-60
2023/07/26 03:02:21;;;;;;;1.65;0.60;;;21.70;1.00;;;;;;4807300;29;20072;-55
2023/07/26 03:04:48;;;;;;;1.63;0.60;;;21.80;1.00;;;;;;4823873;29;20076;-59
2023/07/26 03:07:15;;;;;;;1.02;0.55;;;21.70;1.00;;;;;;4822572;29;20103;-60
2023/07/26 03:09:42;;;;;;;0.93;0.40;;;21.70;1.00;;;;;;4822552;29;20050;-59
2023/07/26 03:12:09;;;;;;;1.38;0.65;;;21.70;1.00;;;;;;4823831;29;20077;-58
2023/07/26 03:14:40;;;;;;;1.65;0.65;;;21.70;1.00;;;;;;4823605;29;20050;-59
2023/07/26 03:17:10;;;;;;;1.77;0.90;;;21.70;1.00;;;;;;4822928;29;20058;-59
2023/07/26 03:19:48;;;;;;;2.53;0.52;;;21.70;1.00;;;;;;4823313;29;20377;-60
2023/07/26 03:22:16;;;;;;;1.60;0.70;;;21.70;1.00;;;;;;4824040;29;20034;-58
2023/07/26 03:24:43;;;;;;;0.98;0.50;;;21.70;1.00;;;;;;4823562;29;20126;-60
2023/07/26 03:27:10;;;;;;;1.60;0.57;;;21.70;1.00;;;;;;4822125;29;20052;-60
2023/07/26 03:29:37;;;;;;;1.08;0.70;;;21.70;1.00;;;;;;4823813;29;20046;-60
2023/07/26 03:32:04;;;;;;;1.65;0.52;;;21.70;1.00;;;;;;4823796;29;20351;-59
2023/07/26 03:34:31;;;;;;;1.00;0.57;;;21.70;1.00;;;;;;4807007;29;20047;-60
2023/07/26 03:36:58;;;;;;;1.13;0.60;;;21.70;1.00;;;;;;4814626;29;20050;-59
2023/07/26 03:39:25;;;;;;;0.88;0.47;;;21.70;1.00;;;;;;4823270;29;20100;-60
2023/07/26 03:41:52;;;;;;;2.55;0.65;;;21.70;1.00;;;;;;4823644;29;20042;-59
2023/07/26 03:44:19;;;;;;;1.98;0.60;;;21.70;1.00;;;;;;4823746;29;20051;-60
2023/07/26 03:46:48;;;;;;;1.58;0.63;;;21.70;1.00;;;;;;4797506;29;20475;-60
2023/07/26 03:49:15;;;;;;;0.82;0.30;;;21.70;1.00;;;;;;4804997;29;20071;-59
2023/07/26 03:51:42;;;;;;;0.85;0.45;;;21.70;1.00;;;;;;4805245;29;20057;-59
2023/07/26 03:54:09;;;;;;;1.42;0.50;;;21.70;1.00;;;;;;4788904;29;20417;-61
2023/07/26 03:56:36;;;;;;;1.10;0.70;;;21.70;1.00;;;;;;4805056;29;20055;-58
2023/07/26 03:59:02;;;;;;;2.55;0.82;;;21.70;1.00;;;;;;4804875;29;20055;-60
2023/07/26 04:01:30;;;;;;;1.75;0.90;;;21.70;1.00;;;;;;4804145;29;20035;-58
2023/07/26 04:03:57;;;;;;;2.35;1.00;;;21.60;1.00;;;;;;4788126;29;20135;-58
2023/07/26 04:06:24;;;;;;;1.20;0.80;;;21.60;1.00;;;;;;4805052;29;20047;-59
2023/07/26 04:08:51;;;;;;;1.10;0.60;;;21.70;1.00;;;;;;4788613;29;20085;-60
2023/07/26 04:11:18;;;;;;;5.43;0.73;;;21.60;1.00;;;;;;4808565;29;20038;-59
2023/07/26 04:13:45;;;;;;;5.20;1.50;;;21.60;1.00;;;;;;4818665;29;20065;-58
2023/07/26 04:16:21;;;;;;;2.90;0.90;;;21.60;1.00;;;;;;4812377;29;20545;-60
2023/07/26 04:18:48;;;;;;;2.05;0.70;;;21.60;1.00;;;;;;4828039;24;20169;-59
2023/07/26 04:21:17;;;;;;;4.35;1.60;;;21.50;1.00;;;;;;4827358;29;20050;-59
2023/07/26 04:23:46;;;;;;;4.07;1.02;;;21.50;1.00;;;;;;4830978;29;20044;-58
2023/07/26 04:26:13;;;;;;;2.03;1.10;;;21.50;1.00;;;;;;4821150;29;20050;-60
2023/07/26 04:28:40;;;;;;;3.72;0.88;;;21.50;1.00;;;;;;4815408;29;20454;-57
2023/07/26 04:31:07;;;;;;;4.78;1.50;;;21.50;1.00;;;;;;4816298;29;20047;-61
2023/07/26 04:33:34;;;;;;;3.65;0.98;;;21.50;1.00;;;;;;4833030;29;20050;-59
2023/07/26 04:36:01;;;;;;;6.22;1.10;;;21.50;1.00;;;;;;4844194;29;20081;-59
2023/07/26 04:38:28;;;;;;;1.65;1.15;;;21.50;1.00;;;;;;4844109;29;20063;-57
2023/07/26 04:40:54;;;;;;;4.07;0.95;;;21.50;1.00;;;;;;4844119;29;20046;-59
2023/07/26 04:43:21;;;;;;;1.90;0.80;;;21.50;1.00;;;;;;4844295;29;20124;-58
2023/07/26 04:45:51;;;;;;;7.53;1.60;;;21.50;1.00;;;;;;4844114;29;20361;-59
2023/07/26 04:48:19;;;;;;;3.83;1.13;;;21.50;1.00;;;;;;4844041;29;20041;-58
2023/07/26 04:51:11;;;;;;;4.50;1.08;;;21.50;1.00;;;;;;4843319;29;20057;-81
2023/07/26 04:53:38;;;;;;;2.13;0.88;;;21.40;1.00;;;;;;4822270;29;20061;-58
2023/07/26 04:56:05;;;;;;;3.42;1.20;;;21.40;1.00;;;;;;4825669;29;20070;-59
2023/07/26 04:58:32;;;;;;;2.30;0.85;;;21.40;1.00;;;;;;4825191;29;20412;-59
2023/07/26 05:00:59;;;;;;;5.50;1.00;;;21.40;1.00;;;;;;4804464;29;20042;-59
2023/07/26 05:03:26;;;;;;;1.77;1.08;;;21.40;1.00;;;;;;4806571;29;20047;-60
2023/07/26 05:05:53;;;;;;;1.83;0.85;;;21.40;1.00;;;;;;4806678;29;20126;-59
2023/07/26 05:08:21;;;;;;;2.50;1.10;;;21.40;1.00;;;;;;4802964;29;20079;-59
2023/07/26 05:10:50;;;;;;;2.65;1.25;;;21.40;1.00;;;;;;4805525;29;20051;-59
2023/07/26 05:13:21;;;;;;;2.28;0.80;;;21.40;1.00;;;;;;4817644;29;20121;-59
2023/07/26 05:15:48;;;;;;;1.95;0.95;;;21.40;1.00;;;;;;4824289;29;20066;-59
2023/07/26 05:18:15;;;;;;;3.63;1.58;;;21.40;1.00;;;;;;4824233;29;20050;-59
2023/07/26 05:20:42;;;;;;;5.10;1.10;;;21.40;1.00;;;;;;4824383;29;20125;-59
2023/07/26 05:23:25;;;;;;;2.92;1.10;;;21.40;1.00;;;;;;4824771;29;20050;-81
2023/07/26 05:25:52;;;;;;;2.60;0.88;;;21.40;1.00;;;;;;4838738;29;20135;-59
2023/07/26 05:28:19;;;;;;;1.85;0.85;;;21.40;1.00;;;;;;4838737;29;20117;-59
2023/07/26 05:30:49;;;;;;;5.40;1.30;;;21.40;1.00;;;;;;4833583;29;20073;-58
2023/07/26 05:33:16;;;;;;;3.95;0.90;;;21.40;1.00;;;;;;4843484;29;20521;-57
2023/07/26 05:35:43;;;;;;;5.82;1.10;;;21.40;1.00;;;;;;4843471;29;20050;-59
2023/07/26 05:38:09;;;;;;;5.15;1.30;;;21.40;1.00;;;;;;4828331;29;20132;-58
2023/07/26 05:40:36;;;;;;;4.60;1.00;;;21.40;1.00;;;;;;4843102;29;20037;-59
2023/07/26 05:43:03;;;;;;;2.42;0.88;;;21.40;1.00;;;;;;4842849;29;20073;-57
2023/07/26 05:45:30;;;;;;;3.17;0.85;;;21.40;1.00;;;;;;4843489;29;20045;-58
2023/07/26 05:47:57;;;;;;;3.17;1.00;;;21.40;1.00;;;;;;4842696;29;20042;-58
2023/07/26 05:50:24;;;;;;;2.33;0.93;;;21.40;1.00;;;;;;4838033;29;20125;-57
2023/07/26 05:52:52;;;;;;;2.35;1.13;;;21.40;1.00;;;;;;4839497;29;20046;-58
2023/07/26 05:55:18;;;;;;;2.00;0.63;;;21.40;1.00;;;;;;4843165;29;20060;-59
2023/07/26 05:57:45;;;;;;;3.50;1.08;;;21.40;1.00;;;;;;4833886;29;20045;-59
2023/07/26 06:00:13;;;;;;;3.20;1.17;;;21.40;1.00;;;;;;4843113;29;20049;-58
2023/07/26 06:02:41;;;;;;;2.05;1.00;;;21.40;1.00;;;;;;4842832;29;20402;-58
2023/07/26 06:05:08;;;;;;;2.50;0.75;;;21.40;1.00;;;;;;4842387;29;20125;-58
2023/07/26 06:07:36;;;;;;;3.92;1.02;;;21.40;1.00;;;;;;4842510;29;20042;-58
2023/07/26 06:10:03;;;;;;;2.55;0.80;;;21.40;1.00;;;;;;4842711;29;20110;-59
2023/07/26 06:12:31;;;;;;;1.63;0.93;;;21.40;1.00;;;;;;4842621;29;20042;-58
2023/07/26 06:14:58;;;;;;;1.33;0.65;;;21.50;1.00;;;;;;4842379;29;20042;-59
2023/07/26 06:17:25;;;;;;;2.83;0.68;;;21.40;1.00;;;;;;4842321;29;20046;-58
2023/07/26 06:19:52;;;;;;;4.85;1.20;;;21.40;1.00;;;;;;4842406;29;20041;-59
2023/07/26 06:22:19;;;;;;;1.30;0.65;;;21.50;1.00;;;;;;4842816;29;20387;-59
2023/07/26 06:24:45;;;;;;;1.80;1.08;;;21.40;1.00;;;;;;4842033;29;20079;-57
2023/07/26 06:27:12;;;;;;;2.13;1.35;;;21.40;1.00;;;;;;4842402;29;20382;-58
2023/07/26 06:29:39;;;;;;;2.28;0.68;;;21.50;1.00;;;;;;4842533;29;20102;-58
2023/07/26 06:32:06;;;;;;;2.78;1.10;;;21.50;1.00;;;;;;4842211;29;20106;-57
2023/07/26 06:34:33;;;;;;;3.22;0.90;;;21.50;1.00;;;;;;4842274;29;20076;-56
2023/07/26 06:37:00;;;;;;;1.67;0.90;;;21.50;1.00;;;;;;4842200;29;20370;-58
2023/07/26 06:39:27;;;;;;;3.83;0.70;;;21.50;1.00;;;;;;4841849;29;20114;-59
2023/07/26 06:41:54;;;;;;;3.45;1.13;;;21.50;1.00;;;;;;4841937;29;20050;-59
2023/07/26 06:44:21;;;;;;;3.97;0.93;;;21.50;1.00;;;;;;4842118;29;20480;-59
2023/07/26 06:46:47;;;;;;;1.77;1.02;;;21.50;1.00;;;;;;4842019;29;20082;-58
2023/07/26 06:49:14;;;;;;;1.45;1.00;;;21.50;1.00;;;;;;4841722;29;20737;-58
2023/07/26 06:51:41;;;;;;;1.75;1.00;;;21.50;1.00;;;;;;4842013;29;20046;-59
2023/07/26 06:54:08;;;;;;;2.00;0.93;;;21.50;1.00;;;;;;4841258;29;20050;-59
2023/07/26 06:56:35;;;;;;;2.55;0.88;;;21.50;1.00;;;;;;4841752;29;20497;-59
2023/07/26 06:59:05;;;;;;;1.88;0.98;;;21.50;1.00;;;;;;4841916;24;20387;-59
2023/07/26 07:01:31;;;;;;;1.90;0.70;;;21.50;1.00;;;;;;4823374;29;20034;-59
2023/07/26 07:03:59;;;;;;;1.52;0.85;;;21.50;1.00;;;;;;4824140;29;20046;-59
2023/07/26 07:06:39;;;;;;;1.58;0.90;;;21.50;1.00;;;;;;4805295;29;20043;-59
2023/07/26 07:09:06;;;;;;;2.15;1.05;;;21.50;1.00;;;;;;4804912;29;20129;-58
2023/07/26 07:11:33;;;;;;;2.65;1.25;;;21.50;1.00;;;;;;4805217;29;20061;-60
2023/07/26 07:14:00;;;;;;;3.55;1.00;;;21.50;1.00;;;;;;4819205;29;20047;-59
2023/07/26 07:16:27;;;;;;;1.60;0.77;;;21.50;1.00;;;;;;4805145;29;20047;-59
2023/07/26 07:18:54;;;;;;;2.13;0.73;;;21.50;1.00;;;;;;4804859;29;20077;-59
2023/07/26 07:21:21;;;;;;;2.50;0.98;;;21.50;1.00;;;;;;4805079;29;20142;-59
2023/07/26 07:23:52;;;;;;;2.33;0.70;;;21.50;1.00;;;;;;4805163;29;20043;-59
2023/07/26 07:26:19;;;;;;;3.97;1.73;;;21.50;1.00;;;;;;4804924;29;20047;-59
2023/07/26 07:28:45;;;;;;;1.77;0.80;;;21.60;1.00;;;;;;4804909;29;20050;-59
2023/07/26 07:31:12;;;;;;;2.78;1.02;;;21.60;1.00;;;;;;4802721;29;20126;-59
2023/07/26 07:33:39;;;;;;;1.42;0.70;;;21.60;1.00;;;;;;4805028;29;20565;-59
2023/07/26 07:36:06;;;;;;;2.65;1.02;;;21.60;1.00;;;;;;4804888;29;20464;-59
2023/07/26 07:38:33;;;;;;;1.85;0.77;;;21.60;1.00;;;;;;4804925;29;20372;-59
2023/07/26 07:41:00;;;;;;;2.13;1.00;;;21.60;1.00;;;;;;4804718;29;20043;-59
2023/07/26 07:43:27;;;;;;;4.75;1.63;;;21.60;1.00;;;;;;4805036;29;20047;-59
2023/07/26 07:45:54;;;;;;;1.90;1.30;;;21.60;1.00;;;;;;4804677;29;20039;-59
2023/07/26 07:48:21;;;;;;;1.73;0.90;;;21.60;1.00;;;;;;4789983;29;20046;-59
2023/07/26 07:50:54;;;;;;;1.98;0.90;;;21.60;1.00;;;;;;4804718;29;20050;-59
2023/07/26 07:53:23;;;;;;;1.83;1.10;;;21.60;1.00;;;;;;4790322;29;20043;-59
2023/07/26 07:55:50;;;;;;;2.08;0.75;;;21.60;1.00;;;;;;4804579;29;20127;-59
2023/07/26 07:58:17;;;;;;;2.58;0.88;;;21.60;1.00;;;;;;4804599;29;20096;-58
2023/07/26 08:00:59;;;;;;;3.95;1.25;;;21.60;1.00;;;;;;4805883;29;20038;-81
2023/07/26 08:03:26;;;;;;;3.05;1.60;;;21.70;1.00;;;;;;4813746;29;20046;-59
2023/07/26 08:05:53;;;;;;;3.42;1.10;;;21.60;1.00;;;;;;4824788;29;20367;-58
2023/07/26 08:08:21;;;;;;;1.80;1.00;;;21.60;1.00;;;;;;4826140;29;20117;-59
2023/07/26 08:10:48;;;;;;;2.60;1.15;;;21.60;1.00;;;;;;4826813;29;20042;-59
2023/07/26 08:13:15;;;;;;;6.75;1.15;;;21.60;1.00;;;;;;4826506;29;20494;-59
2023/07/26 08:15:42;;;;;;;1.67;0.98;;;21.70;1.00;;;;;;4826232;29;20061;-59
2023/07/26 08:18:09;;;;;;;1.77;1.00;;;21.60;1.00;;;;;;4826023;29;20050;-59
2023/07/26 08:20:37;;;;;;;2.42;0.98;;;21.70;1.00;;;;;;4826030;29;20489;-59
2023/07/26 08:23:04;;;;;;;2.90;0.98;;;21.70;1.00;;;;;;4826213;29;20129;-59
2023/07/26 08:25:31;;;;;;;2.60;1.05;;;21.60;1.00;;;;;;4825937;29;20042;-59
2023/07/26 08:27:58;;;;;;;2.38;0.98;;;21.60;1.00;;;;;;4825962;29;20092;-59
2023/07/26 08:30:25;;;;;;;2.38;0.75;;;21.60;1.00;;;;;;4826105;29;20490;-59
2023/07/26 08:33:43;;;;;;;3.17;1.20;;;21.60;1.00;;;;;;4825974;29;20458;-81
2023/07/26 08:36:09;;;;;;;1.60;0.82;;;21.60;1.00;;;;;;4807211;29;20420;-59
2023/07/26 08:38:36;;;;;;;2.83;1.20;;;21.60;1.00;;;;;;4825600;29;20118;-57
2023/07/26 08:41:03;;;;;;;2.80;1.23;;;21.60;1.00;;;;;;4825424;29;20047;-58
2023/07/26 08:43:35;;;;;;;4.25;1.23;;;21.60;1.00;;;;;;4825829;29;20141;-59
2023/07/26 08:46:03;;;;;;;1.75;1.00;;;21.60;1.00;;;;;;4825628;29;20042;-59
2023/07/26 08:48:32;;;;;;;1.30;0.77;;;21.60;1.00;;;;;;4818699;29;20504;-59
2023/07/26 08:51:02;;;;;;;2.05;1.05;;;21.60;1.00;;;;;;4825578;29;20046;-59
2023/07/26 08:53:31;;;;;;;2.58;1.05;;;21.60;1.00;;;;;;4825881;29;20054;-59
2023/07/26 08:55:57;;;;;;;3.40;1.17;;;21.60;1.00;;;;;;4825445;29;20503;-58
2023/07/26 08:58:25;;;;;;;2.72;1.40;;;21.70;1.00;;;;;;4825177;29;20527;-58
2023/07/26 09:00:53;;;;;;;1.88;0.70;;;21.60;1.00;;;;;;4819413;29;20042;-58
2023/07/26 09:03:21;;;;;;;3.40;1.05;;;21.60;1.00;;;;;;4817180;29;20129;-59
2023/07/26 09:06:08;;;;;;;1.55;1.00;;;21.60;1.00;;;;;;4825485;29;20038;-59
2023/07/26 09:08:35;;;;;;;1.98;1.10;;;21.60;1.00;;;;;;4825304;29;20054;-59
2023/07/26 09:11:23;;;;;;;2.83;1.15;;;21.60;1.00;;;;;;4825361;29;20595;-57
2023/07/26 09:13:58;;;;;;;2.50;0.93;;;21.60;1.00;;;;;;4825511;29;20042;-59
2023/07/26 09:16:29;;;;;;;1.08;0.50;;;21.60;1.00;;;;;;4824786;29;20046;-59
2023/07/26 09:19:04;;;;;;;4.18;1.33;;;21.60;1.00;;;;;;4824727;29;20482;-59
2023/07/26 09:21:35;;;;;;;2.00;1.27;;;21.60;1.00;;;;;;4825412;29;20054;-59
2023/07/26 09:24:04;;;;;;;6.00;1.20;;;21.60;1.00;;;;;;4825286;29;20095;-57
2023/07/26 09:26:41;;;;;;;3.40;1.05;;;21.60;1.00;;;;;;4825208;29;20042;-58
2023/07/26 09:29:13;;;;;;;5.80;1.67;;;21.60;1.00;;;;;;4824760;29;20065;-58
2023/07/26 09:31:44;;;;;;;2.92;1.20;;;21.60;1.00;;;;;;4825069;29;20038;-58
2023/07/26 09:34:18;;;;;;;2.58;1.17;;;21.60;1.00;;;;;;4824768;29;20051;-59
2023/07/26 09:36:49;;;;;;;5.03;1.23;;;21.70;1.00;;;;;;4824884;29;20172;-59
2023/07/26 09:39:17;;;;;;;2.63;1.38;;;21.60;1.00;;;;;;4824761;29;20450;-59
2023/07/26 09:41:47;;;;;;;3.83;1.17;;;21.60;1.00;;;;;;4824838;29;20046;-59
2023/07/26 09:44:15;;;;;;;2.47;1.40;;;21.60;1.00;;;;;;4824763;29;20047;-59
2023/07/26 09:46:50;;;;;;;3.55;1.52;;;21.60;1.00;;;;;;4824737;29;20398;-58
2023/07/26 09:49:19;;;;;;;4.47;1.35;;;21.60;1.00;;;;;;4824623;29;20077;-58
2023/07/26 09:51:53;;;;;;;4.60;1.15;;;21.60;1.00;;;;;;4824924;29;20137;-59
2023/07/26 09:54:31;;;;;;;3.17;1.20;;;21.60;1.00;;;;;;4824993;29;20130;-58
2023/07/26 09:57:01;;;;;;;2.40;1.45;;;21.60;1.00;;;;;;4825039;29;20383;-59
2023/07/26 09:59:29;;;;;;;2.55;1.77;;;21.60;1.00;;;;;;4824796;29;20501;-59
2023/07/26 10:02:02;;;;;;;4.05;1.40;;;21.60;1.00;;;;;;4824441;29;20042;-59
2023/07/26 10:04:53;;;;;;;3.88;1.48;;;21.60;1.00;;;;;;4824611;29;20042;-58
2023/07/26 10:07:23;;;;;;;4.78;1.52;;;21.60;1.00;;;;;;4824727;29;20489;-57
2023/07/26 10:09:52;;;;;;;2.08;1.30;;;21.60;1.00;;;;;;4824634;29;20047;-58
2023/07/26 10:12:23;;;;;;;3.35;1.98;;;21.60;1.00;;;;;;4824418;29;20043;-59
2023/07/26 10:14:52;;;;;;;2.15;1.38;;;21.60;1.00;;;;;;4824360;29;20042;-58
2023/07/26 10:17:19;;;;;;;3.22;1.73;;;21.60;1.00;;;;;;4824061;29;20046;-58
2023/07/26 10:19:47;;;;;;;4.22;1.33;;;21.60;1.00;;;;;;4824461;29;20050;-57
2023/07/26 10:22:15;;;;;;;3.30;1.60;;;21.60;1.00;;;;;;4823828;29;20497;-57
2023/07/26 10:24:42;;;;;;;3.05;1.70;;;21.60;1.00;;;;;;4810089;29;20390;-57
2023/07/26 10:27:10;;;;;;;3.63;1.40;;;21.60;1.00;;;;;;4824240;29;20489;-58
2023/07/26 10:29:37;;;;;;;2.75;1.30;;;21.60;1.00;;;;;;4800783;29;20054;-56
2023/07/26 10:32:08;;;;;;;3.33;1.88;;;21.60;1.00;;;;;;4824005;29;20497;-57
2023/07/26 10:34:35;;;;;;;2.70;1.50;;;21.60;1.00;;;;;;4824150;29;20584;-59
2023/07/26 10:37:18;;;;;;;2.72;1.38;;;21.60;1.00;;;;;;4824065;29;20091;-60
2023/07/26 10:40:35;;;;;;;4.10;1.85;;;21.60;1.00;;;;;;4833030;24;20053;-59
2023/07/26 10:43:22;;;;;;;2.83;1.90;;;21.60;1.00;;;;;;4835918;29;20150;-59
2023/07/26 10:45:53;;;;;;;2.80;1.52;;;21.60;1.00;;;;;;4830318;29;20400;-58
2023/07/26 10:48:26;;;;;;;4.50;1.42;;;21.60;1.00;;;;;;4841788;29;20068;-56
2023/07/26 10:50:59;;;;;;;5.90;1.70;;;21.60;1.00;;;;;;4842000;29;20046;-59
2023/07/26 10:53:27;;;;;;;;;;;21.60;1.00;;;;;;4842468;29;20078;-59
2023/07/26 10:56:12;;;;;;;4.88;1.48;;;21.60;1.00;;;;;;4841927;29;20011;-59
2023/07/26 10:58:50;;;;;;;2.85;1.50;;;21.60;1.00;;;;;;4841793;29;20135;-60
2023/07/26 11:01:39;;;;;;;6.22;1.83;;;21.70;1.00;;;;;;4841900;29;20076;-57
2023/07/26 11:04:19;;;;;;;5.97;1.73;;;21.60;1.00;;;;;;4841880;29;20052;-59
2023/07/26 11:06:59;;;;;;;3.33;1.20;;;21.60;1.00;;;;;;4841887;29;20046;-59
2023/07/26 11:09:31;;;;;;;3.20;1.65;;;21.60;1.00;;;;;;4841525;29;20038;-59
2023/07/26 11:12:00;;;;;;;2.35;1.70;;;21.60;1.00;;;;;;4833414;29;20509;-59
2023/07/26 11:14:30;;;;;;;3.97;1.70;;;21.60;1.00;;;;;;4841489;29;20125;-59
2023/07/26 11:17:01;;;;;;;7.20;2.10;;;21.60;1.00;;;;;;4841953;29;20048;-58
2023/07/26 11:19:31;;;;;;;4.88;1.58;;;21.70;1.00;;;;;;4841423;29;20056;-59
2023/07/26 11:22:05;;;;;;;5.13;2.28;;;21.70;1.00;;;;;;4841233;29;20116;-59
2023/07/26 11:24:32;;;;;;;5.32;1.33;;;21.70;1.00;;;;;;4841460;29;20046;-56
2023/07/26 11:27:05;;;;;;;5.97;2.65;;;21.70;1.00;;;;;;4841293;29;20512;-58
2023/07/26 11:29:35;;;;;;;6.95;1.77;;;21.70;1.00;;;;;;4841079;29;20120;-59
2023/07/26 11:32:06;;;;;;;8.05;1.85;;;21.70;1.00;;;;;;4841269;29;20048;-57
2023/07/26 11:34:34;;;;;;;2.85;1.60;;;21.70;1.00;;;;;;4841261;29;20099;-56
2023/07/26 11:37:15;;;;;;;4.60;1.95;;;21.70;1.00;;;;;;4841205;29;20106;-59
2023/07/26 11:39:42;;;;;;;4.22;1.48;;;21.70;1.00;;;;;;4826048;29;20049;-59
2023/07/26 11:42:09;;;;;;;5.15;1.45;;;21.70;1.00;;;;;;4841476;29;20057;-58
2023/07/26 11:44:36;;;;;;;4.32;2.42;;;21.70;1.00;;;;;;4841416;29;20082;-58
2023/07/26 11:47:03;;;;;;;2.70;1.60;;;21.70;1.00;;;;;;4841574;29;20051;-59
2023/07/26 11:49:32;;;;;;;3.25;1.67;;;21.70;1.00;;;;;;4841146;29;20049;-58
2023/07/26 11:51:59;;;;;;;4.55;1.60;;;21.70;1.00;;;;;;4828637;29;20050;-56
2023/07/26 11:54:26;;;;;;;5.85;1.65;;;21.70;1.00;;;;;;4839215;29;20509;-59
2023/07/26 11:56:53;;;;;;;4.72;1.52;;;21.70;1.00;;;;;;4841287;29;20573;-59
2023/07/26 11:59:20;;;;;;;5.38;2.08;;;21.70;1.00;;;;;;4841110;29;20071;-59
2023/07/26 12:01:47;;;;;;;2.65;1.27;;;21.70;1.00;;;;;;4841045;29;20121;-59
2023/07/26 12:04:16;;;;;;;4.18;1.98;;;21.70;1.00;;;;;;4841348;29;20061;-59
2023/07/26 12:06:45;;;;;;;2.30;1.67;;;21.70;1.00;;;;;;4837944;29;20047;-59
2023/07/26 12:09:14;;;;;;;3.95;1.92;;;21.70;1.00;;;;;;4830434;29;20103;-59
2023/07/26 12:11:48;;;;;;;6.43;2.13;;;21.70;1.00;;;;;;4829511;29;20495;-58
2023/07/26 12:14:16;;;;;;;3.85;1.80;;;21.70;1.00;;;;;;4837687;29;20068;-58
2023/07/26 12:16:53;;;;;;;4.82;1.65;;;21.70;1.00;;;;;;4841243;29;20557;-59
2023/07/26 12:19:21;;;;;;;4.40;1.85;;;21.70;1.00;;;;;;4826130;29;20050;-58
2023/07/26 12:21:49;;;;;;;4.43;1.60;;;21.70;1.00;;;;;;4841001;29;20048;-57
2023/07/26 12:24:17;;;;;;;3.22;1.42;;;21.70;1.00;;;;;;4840998;29;20133;-58
2023/07/26 12:26:46;;;;;;;3.78;2.22;;;21.70;1.00;;;;;;4840885;29;20181;-59
2023/07/26 12:29:14;;;;;;;3.53;1.42;;;21.70;1.00;;;;;;4840715;29;20485;-57
2023/07/26 12:31:41;;;;;;;4.45;1.90;;;21.70;1.00;;;;;;4840871;29;20054;-57
2023/07/26 12:34:12;;;;;;;4.28;1.58;;;21.70;1.00;;;;;;4840916;29;20095;-57
2023/07/26 12:36:45;;;;;;;2.58;1.60;;;21.70;1.00;;;;;;4835714;29;20129;-57
2023/07/26 12:39:14;;;;;;;4.43;1.55;;;21.70;1.00;;;;;;4840993;29;20446;-56
2023/07/26 12:41:42;;;;;;;4.22;1.70;;;21.70;1.00;;;;;;4840456;29;20065;-59
2023/07/26 12:44:13;;;;;;;4.80;1.65;;;21.70;1.00;;;;;;4833721;24;20111;-57
2023/07/26 12:46:42;;;;;;;2.92;1.35;;;21.70;1.00;;;;;;4821161;29;20055;-57
2023/07/26 12:49:11;;;;;;;3.08;1.80;;;21.70;1.00;;;;;;4822600;29;20047;-58
2023/07/26 12:51:39;;;;;;;6.95;1.55;;;21.70;1.00;;;;;;4822551;29;20045;-57
2023/07/26 12:54:06;;;;;;;3.40;1.35;;;21.70;1.00;;;;;;4825779;29;20122;-56
2023/07/26 12:56:33;;;;;;;4.60;1.98;;;21.70;1.00;;;;;;4824468;29;20397;-57
2023/07/26 12:59:01;;;;;;;4.28;2.25;;;21.70;1.00;;;;;;4811860;29;20240;-59
2023/07/26 13:01:38;;;;;;;8.80;2.38;;;21.70;1.00;;;;;;4825391;29;20046;-59
2023/07/26 13:04:07;;;;;;;5.60;2.20;;;21.70;1.00;;;;;;4825599;29;20042;-58
2023/07/26 13:06:35;;;;;;;3.47;1.75;;;21.70;1.00;;;;;;4825559;29;20463;-60
2023/07/26 13:09:04;;;;;;;3.08;1.67;;;21.70;1.00;;;;;;4825334;29;20464;-59
2023/07/26 13:11:31;;;;;;;3.95;1.70;;;21.70;1.00;;;;;;4825120;29;20106;-60